Santa Rita Park, CA

5:20 AM PST on December 28, 2014 (GMT -0800)
RAWS SAN LUIS PORTABLE CA US | Change Station
CLOSE
Current Station
Personal Weather Station
Location: Los Banos, CA
Elevation: 69 ft
Nearby Weather Stations

Elev 69 ft 37.07 °N, 120.80 °W | Updated 46 minutes ago

Fog
Fog
36 °F
Feels Like 36 °F
N
2
Wind Variable Wind from West
Gusts 4.0 mph

Today
High -- | Low -- °F
--% Chance of Precip.
Yesterday
High -- | Low -- °F
Precip. -- in
7:15 AM 4:53 PM
Waxing Crescent, 47% visible
Pressure 30.31 in
Visibility 1.5 miles
Clouds Clear
Windchill 36 °F
Dew Point 36 °F
Humidity 100%
Rainfall 0.00 in
Snow Depth Not available.
UV 0 out of 12
Pollen .90 out of 12
Air Quality Not available.
Flu Activity Not available.
SPECI KMCE 281301Z AUTO 00000KT 1 1/2SM BR CLR 02/01 A3031 RMK AO2 T00170006

More Conditions Fewer Conditions

Pressure 30.31 in
Visibility 1.5 miles
Clouds Clear
Windchill 36 °F
Dew Point 36 °F
Humidity 100%
Rainfall 0.00 in
Snow Depth Not available.
UV 0 out of 12
Pollen .90 out of 12
Air Quality Not available.
Flu Activity Not available.
SPECI KMCE 281301Z AUTO 00000KT 1 1/2SM BR CLR 02/01 A3031 RMK AO2 T00170006

More Conditions Fewer Conditions

10-Day Weather Forecast

Almanac

Astronomy

Dec. 28, 2014 Rise Set
Actual Time
Civil Twilight
Nautical Twilight
Astronomical Twilight
Moon
Length of Visible Light
Length of Day
Tomorrow will be .
, % of the Moon is Illuminated

Today's Extremes

State Highs State Lows

Community

WunderPhotos

Upload Photos

1,781,258 photos uploaded!

WunderBlogs® & News

Nearby

Air Quality

  Air Quality AQ Index Pollutant
Not available.

Snow Depth

Station Depth Elevation

Earthquake Activity

City Distance Mag. Time & Date
Minimum magnitude displayed is 2.5.

Coastal Water Temperatures

Place Temperature

Nearby Weather Stations